Time;durP1;ratioP1;P1;durP2;ratioP2;P2;SDS_P1;SDS_P2;PMS_P1;PMS_P2;Temp;Humidity;BMP_temperature;BMP_pressure;BME280_temperature;BME280_humidity;BME280_pressure;Samples;Min_cycle;Max_cycle;Signal;HPM_P1;HPM_P2
2022/05/11 00:00:44;;;;;;;;;3.00;3.00;;;;;;;;5019048;28;10380;-75
2022/05/11 00:03:13;;;;;;;;;3.75;3.75;;;;;;;;5013237;28;9651;-75
2022/05/11 00:05:41;;;;;;;;;2.00;1.00;;;;;;;;5021206;28;9556;-75
2022/05/11 00:08:08;;;;;;;;;3.00;3.00;;;;;;;;5018436;28;10372;-75
2022/05/11 00:10:36;;;;;;;;;2.25;2.25;;;;;;;;5021674;28;9566;-75
2022/05/11 00:13:03;;;;;;;;;3.00;3.00;;;;;;;;5018401;28;9557;-75
2022/05/11 00:15:31;;;;;;;;;6.50;4.50;;;;;;;;5016980;28;9609;-75
2022/05/11 00:17:58;;;;;;;;;3.00;3.00;;;;;;;;4996290;28;10376;-76
2022/05/11 00:20:27;;;;;;;;;4.00;4.00;;;;;;;;5021291;28;9832;-76
2022/05/11 00:22:55;;;;;;;;;4.00;3.00;;;;;;;;5021143;28;9796;-76
2022/05/11 00:25:24;;;;;;;;;3.50;2.00;;;;;;;;5011682;28;9784;-76
2022/05/11 00:27:53;;;;;;;;;4.00;4.00;;;;;;;;5001849;28;9858;-76
2022/05/11 00:30:20;;;;;;;;;3.00;3.00;;;;;;;;5000568;28;11956;-76
2022/05/11 00:32:48;;;;;;;;;3.25;3.00;;;;;;;;5017042;28;9945;-76
2022/05/11 00:35:15;;;;;;;;;3.00;3.00;;;;;;;;5020477;28;9730;-75
2022/05/11 00:37:44;;;;;;;;;3.00;3.00;;;;;;;;5014975;28;9980;-76
2022/05/11 00:40:12;;;;;;;;;3.00;3.00;;;;;;;;5017035;28;9839;-75
2022/05/11 00:42:40;;;;;;;;;3.75;3.75;;;;;;;;5008073;28;9886;-75
2022/05/11 00:45:08;;;;;;;;;4.00;3.00;;;;;;;;5021716;28;9809;-75
2022/05/11 00:47:39;;;;;;;;;2.00;2.00;;;;;;;;5000794;28;9891;-75
2022/05/11 00:50:08;;;;;;;;;3.00;3.00;;;;;;;;5004634;28;9893;-75
2022/05/11 00:52:41;;;;;;;;;2.00;2.00;;;;;;;;5018911;28;9801;-76
2022/05/11 00:55:13;;;;;;;;;2.75;2.75;;;;;;;;5014752;28;9731;-74
2022/05/11 00:57:48;;;;;;;;;2.75;2.75;;;;;;;;5005465;28;9889;-75
2022/05/11 01:00:17;;;;;;;;;1.75;1.75;;;;;;;;5015914;28;9768;-75
2022/05/11 01:02:47;;;;;;;;;3.50;3.50;;;;;;;;5017830;28;9880;-75
2022/05/11 01:05:14;;;;;;;;;3.75;3.75;;;;;;;;5002432;28;10062;-75
2022/05/11 01:07:42;;;;;;;;;2.00;2.00;;;;;;;;5017703;28;9946;-75
2022/05/11 01:10:11;;;;;;;;;4.50;3.00;;;;;;;;5020784;28;10864;-75
2022/05/11 01:12:42;;;;;;;;;3.00;3.00;;;;;;;;5008776;28;10259;-76
2022/05/11 01:15:10;;;;;;;;;4.00;3.00;;;;;;;;5008496;28;10134;-76
2022/05/11 01:17:39;;;;;;;;;3.00;3.00;;;;;;;;5017381;28;10977;-75
2022/05/11 01:20:08;;;;;;;;;3.00;3.00;;;;;;;;4998885;28;10216;-75
2022/05/11 01:22:39;;;;;;;;;1.00;1.00;;;;;;;;5018375;28;10092;-76
2022/05/11 01:25:10;;;;;;;;;2.25;2.25;;;;;;;;5018697;28;10073;-76
2022/05/11 01:27:40;;;;;;;;;3.00;3.00;;;;;;;;5017336;28;10145;-76
2022/05/11 01:30:12;;;;;;;;;4.00;4.00;;;;;;;;5006994;28;10220;-75
2022/05/11 01:32:41;;;;;;;;;2.50;2.50;;;;;;;;5005133;28;10201;-76
2022/05/11 01:35:25;;;;;;;;;3.00;3.00;;;;;;;;4998172;28;10202;-75
2022/05/11 01:38:03;;;;;;;;;4.00;2.00;;;;;;;;5016247;28;10201;-75
2022/05/11 01:40:31;;;;;;;;;6.75;3.75;;;;;;;;5015504;28;11055;-75
2022/05/11 01:42:59;;;;;;;;;3.00;1.00;;;;;;;;5008299;28;10483;-76
2022/05/11 01:45:27;;;;;;;;;6.75;4.00;;;;;;;;5019633;28;10238;-75
2022/05/11 01:47:55;;;;;;;;;2.00;2.00;;;;;;;;5017984;28;10273;-75
2022/05/11 01:50:23;;;;;;;;;2.25;2.25;;;;;;;;5009622;28;10068;-76
2022/05/11 01:52:50;;;;;;;;;3.00;3.00;;;;;;;;5021865;28;10271;-75
2022/05/11 01:55:18;;;;;;;;;3.00;3.00;;;;;;;;5016482;28;10193;-75
2022/05/11 01:57:46;;;;;;;;;3.00;3.00;;;;;;;;5017211;28;10168;-75
2022/05/11 02:00:15;;;;;;;;;4.00;4.00;;;;;;;;5013689;28;10345;-75
2022/05/11 02:02:42;;;;;;;;;3.00;3.00;;;;;;;;4995644;28;10937;-74
2022/05/11 02:07:55;;;;;;;;;3.75;3.75;;;;;;;;5013828;28;10301;-75
2022/05/11 02:10:27;;;;;;;;;2.00;2.00;;;;;;;;5017696;28;10424;-75
2022/05/11 02:12:58;;;;;;;;;3.00;3.00;;;;;;;;5017145;28;10418;-74
2022/05/11 02:15:26;;;;;;;;;3.75;3.75;;;;;;;;5007354;28;10454;-75
2022/05/11 02:17:54;;;;;;;;;3.00;3.00;;;;;;;;5017555;28;10412;-75
2022/05/11 02:20:23;;;;;;;;;2.25;2.25;;;;;;;;5011559;28;11182;-75
2022/05/11 02:22:50;;;;;;;;;5.50;5.50;;;;;;;;5015984;28;10365;-75
2022/05/11 02:25:19;;;;;;;;;3.75;3.75;;;;;;;;5013232;28;10470;-76
2022/05/11 02:27:47;;;;;;;;;2.75;2.75;;;;;;;;5000160;28;10395;-76
2022/05/11 02:30:20;;;;;;;;;6.00;4.00;;;;;;;;5017468;28;11981;-76
2022/05/11 02:32:48;;;;;;;;;3.00;3.00;;;;;;;;5017654;28;10582;-76
2022/05/11 02:35:16;;;;;;;;;6.25;4.00;;;;;;;;5019553;28;11215;-76
2022/05/11 02:37:46;;;;;;;;;6.00;3.75;;;;;;;;5021891;28;10597;-76
2022/05/11 02:40:16;;;;;;;;;4.00;4.00;;;;;;;;5023441;28;10485;-75
2022/05/11 02:42:44;;;;;;;;;5.50;5.50;;;;;;;;5017821;28;10673;-75
2022/05/11 02:45:13;;;;;;;;;3.00;3.00;;;;;;;;5027168;28;11618;-75
2022/05/11 02:47:43;;;;;;;;;3.00;3.00;;;;;;;;5021191;28;10718;-76
2022/05/11 02:50:13;;;;;;;;;4.00;4.00;;;;;;;;5022613;28;10585;-75
2022/05/11 02:52:40;;;;;;;;;3.75;3.00;;;;;;;;5019289;28;10696;-76
2022/05/11 02:55:08;;;;;;;;;6.00;3.00;;;;;;;;5023661;28;10627;-76
2022/05/11 02:57:36;;;;;;;;;5.00;5.00;;;;;;;;5018387;28;10622;-76
2022/05/11 03:00:06;;;;;;;;;3.00;3.00;;;;;;;;5003353;28;11473;-75
2022/05/11 03:02:34;;;;;;;;;6.75;5.00;;;;;;;;5021489;28;11728;-75
2022/05/11 03:05:02;;;;;;;;;7.00;5.50;;;;;;;;5024470;28;10603;-75
2022/05/11 03:07:30;;;;;;;;;6.00;3.50;;;;;;;;5023183;28;10689;-75
2022/05/11 03:09:57;;;;;;;;;7.75;4.00;;;;;;;;5024015;28;11427;-76
2022/05/11 03:12:25;;;;;;;;;5.50;5.50;;;;;;;;5022752;28;11519;-75
2022/05/11 03:14:54;;;;;;;;;6.00;6.00;;;;;;;;5023758;28;10775;-75
2022/05/11 03:17:21;;;;;;;;;7.75;6.00;;;;;;;;5004684;28;10742;-76
2022/05/11 03:19:49;;;;;;;;;4.00;3.50;;;;;;;;5011291;28;10731;-76
2022/05/11 03:22:18;;;;;;;;;3.25;3.25;;;;;;;;5023754;28;11534;-76
2022/05/11 03:24:46;;;;;;;;;4.00;4.00;;;;;;;;5024866;28;10651;-75
2022/05/11 03:27:13;;;;;;;;;8.00;8.00;;;;;;;;5005083;28;11488;-76
2022/05/11 03:29:40;;;;;;;;;6.25;6.25;;;;;;;;5015961;28;10800;-76
2022/05/11 03:34:53;;;;;;;;;5.00;4.00;;;;;;;;5018982;28;11509;-76
2022/05/11 03:37:22;;;;;;;;;4.00;4.00;;;;;;;;5023920;28;10846;-76
2022/05/11 03:39:50;;;;;;;;;5.50;5.50;;;;;;;;5006188;28;10910;-76
2022/05/11 03:42:20;;;;;;;;;8.00;5.00;;;;;;;;5022521;28;10863;-76
2022/05/11 03:44:47;;;;;;;;;6.00;6.00;;;;;;;;5008476;28;10881;-76
2022/05/11 03:47:14;;;;;;;;;5.50;5.50;;;;;;;;5022455;28;11025;-76
2022/05/11 03:49:42;;;;;;;;;6.25;6.25;;;;;;;;5014837;28;11578;-76
2022/05/11 03:52:09;;;;;;;;;5.00;5.00;;;;;;;;5020379;28;10632;-76
2022/05/11 03:54:38;;;;;;;;;7.00;4.00;;;;;;;;5012456;28;10878;-76
2022/05/11 03:57:06;;;;;;;;;4.00;4.00;;;;;;;;5019448;28;10807;-75
2022/05/11 03:59:33;;;;;;;;;7.25;7.00;;;;;;;;5012217;28;10855;-76
2022/05/11 04:02:00;;;;;;;;;5.50;5.50;;;;;;;;5014206;28;11017;-76
2022/05/11 04:04:27;;;;;;;;;6.00;6.00;;;;;;;;5009821;28;11057;-76
2022/05/11 04:06:54;;;;;;;;;8.25;8.25;;;;;;;;5011527;28;10964;-75
2022/05/11 04:09:22;;;;;;;;;5.50;5.50;;;;;;;;5022781;28;10969;-75
2022/05/11 04:11:50;;;;;;;;;6.75;5.50;;;;;;;;5019385;28;11784;-77
2022/05/11 04:14:18;;;;;;;;;6.50;6.50;;;;;;;;5019263;28;11826;-76
2022/05/11 04:16:45;;;;;;;;;6.25;6.25;;;;;;;;5015331;28;10984;-76
2022/05/11 04:19:12;;;;;;;;;6.50;6.50;;;;;;;;5013194;28;11028;-76
2022/05/11 04:21:39;;;;;;;;;7.25;7.25;;;;;;;;5017701;28;10981;-76
2022/05/11 04:24:07;;;;;;;;;7.00;7.00;;;;;;;;5019998;28;11152;-76
2022/05/11 04:26:35;;;;;;;;;6.75;6.75;;;;;;;;5019047;28;11041;-76
2022/05/11 04:29:04;;;;;;;;;4.00;4.00;;;;;;;;5017616;28;11439;-78
2022/05/11 04:31:31;;;;;;;;;6.25;6.25;;;;;;;;5017185;28;10905;-77
2022/05/11 04:33:59;;;;;;;;;6.00;6.00;;;;;;;;5019568;28;10944;-76
2022/05/11 04:36:27;;;;;;;;;4.50;3.75;;;;;;;;4967572;28;11042;-76
2022/05/11 04:38:55;;;;;;;;;3.50;3.50;;;;;;;;5018920;28;10757;-80
2022/05/11 04:41:22;;;;;;;;;8.25;7.25;;;;;;;;5016924;28;10895;-79
2022/05/11 04:43:50;;;;;;;;;10.50;8.00;;;;;;;;5004281;28;11672;-86
2022/05/11 04:46:18;;;;;;;;;5.50;5.50;;;;;;;;5022959;28;10863;-83
2022/05/11 04:48:46;;;;;;;;;5.50;5.00;;;;;;;;5020762;28;11023;-80
2022/05/11 04:51:13;;;;;;;;;5.50;5.00;;;;;;;;5016085;28;10881;-81
2022/05/11 04:53:41;;;;;;;;;6.00;6.00;;;;;;;;5018420;28;11082;-82
2022/05/11 04:56:08;;;;;;;;;5.50;5.50;;;;;;;;5025832;28;10953;-82
2022/05/11 04:58:36;;;;;;;;;8.50;6.75;;;;;;;;5016600;28;10887;-83
2022/05/11 05:01:03;;;;;;;;;6.50;6.50;;;;;;;;5016524;28;10863;-78
2022/05/11 05:03:32;;;;;;;;;8.75;7.00;;;;;;;;5016273;28;11114;-77
2022/05/11 05:06:01;;;;;;;;;7.25;7.25;;;;;;;;5018790;28;10876;-79
2022/05/11 05:08:29;;;;;;;;;8.25;6.25;;;;;;;;5015642;28;10890;-83
2022/05/11 05:10:56;;;;;;;;;7.25;6.50;;;;;;;;5017039;28;10784;-82
2022/05/11 05:13:23;;;;;;;;;6.50;6.50;;;;;;;;5017983;28;10823;-79
2022/05/11 05:15:56;;;;;;;;;8.00;8.00;;;;;;;;5016594;28;10715;-78
2022/05/11 05:18:24;;;;;;;;;5.50;5.50;;;;;;;;5015125;28;10765;-77
2022/05/11 05:20:53;;;;;;;;;8.00;8.00;;;;;;;;5019589;28;10726;-78
2022/05/11 05:23:20;;;;;;;;;8.25;8.25;;;;;;;;5017922;28;10732;-75
2022/05/11 05:25:47;;;;;;;;;7.25;7.25;;;;;;;;5018375;28;11466;-80
2022/05/11 05:31:11;;;;;;;;;9.75;9.75;;;;;;;;5017234;28;10495;-85
2022/05/11 05:33:41;;;;;;;;;8.25;7.00;;;;;;;;5020081;28;10422;-84
2022/05/11 05:36:11;;;;;;;;;12.00;11.00;;;;;;;;5020595;28;10525;-84
2022/05/11 05:38:39;;;;;;;;;18.75;18.00;;;;;;;;5019593;28;10560;-84
2022/05/11 05:41:06;;;;;;;;;15.25;15.00;;;;;;;;5017069;28;10694;-79
2022/05/11 05:43:34;;;;;;;;;16.00;16.00;;;;;;;;5016369;28;10634;-80
2022/05/11 05:46:01;;;;;;;;;18.75;15.25;;;;;;;;5016906;28;10563;-80
2022/05/11 05:48:29;;;;;;;;;15.00;13.00;;;;;;;;5018961;28;10527;-80
2022/05/11 05:51:03;;;;;;;;;12.75;10.00;;;;;;;;5021237;28;10464;-80
2022/05/11 05:53:33;;;;;;;;;12.25;12.25;;;;;;;;5017226;28;10198;-80
2022/05/11 05:56:03;;;;;;;;;9.50;9.50;;;;;;;;5004954;28;10233;-80
2022/05/11 05:58:31;;;;;;;;;10.75;10.75;;;;;;;;5013249;28;10159;-79
2022/05/11 06:00:59;;;;;;;;;9.75;9.75;;;;;;;;4995327;28;10071;-79
2022/05/11 06:03:30;;;;;;;;;11.50;11.00;;;;;;;;5016494;28;10049;-80
2022/05/11 06:05:57;;;;;;;;;11.75;11.75;;;;;;;;5013767;28;9961;-78
2022/05/11 06:08:24;;;;;;;;;11.50;11.50;;;;;;;;5018171;28;9863;-79
2022/05/11 06:10:54;;;;;;;;;13.50;11.00;;;;;;;;5017974;28;10136;-79
2022/05/11 06:13:23;;;;;;;;;15.50;9.25;;;;;;;;5016966;28;9890;-79
2022/05/11 06:15:51;;;;;;;;;12.25;10.00;;;;;;;;5019900;28;9981;-80
2022/05/11 06:18:19;;;;;;;;;10.00;10.00;;;;;;;;5021341;28;9896;-77
2022/05/11 06:20:51;;;;;;;;;9.00;9.00;;;;;;;;5022261;28;9982;-81
2022/05/11 06:23:18;;;;;;;;;9.50;8.00;;;;;;;;5019386;28;9737;-80
2022/05/11 06:25:49;;;;;;;;;12.25;10.00;;;;;;;;5022686;28;9812;-83
2022/05/11 06:28:18;;;;;;;;;10.00;8.00;;;;;;;;5018569;28;9725;-82
2022/05/11 06:30:48;;;;;;;;;11.00;11.00;;;;;;;;5014646;28;9497;-77
2022/05/11 06:33:15;;;;;;;;;9.25;8.75;;;;;;;;5012193;28;9557;-79
2022/05/11 06:35:43;;;;;;;;;8.00;8.00;;;;;;;;5015475;28;9577;-82
2022/05/11 06:38:11;;;;;;;;;10.33;6.67;;;;;;;;5020345;28;9413;-75
2022/05/11 06:40:38;;;;;;;;;10.00;10.00;;;;;;;;5012616;28;9266;-75
2022/05/11 06:43:06;;;;;;;;;8.00;8.00;;;;;;;;5022811;28;9379;-77
2022/05/11 06:45:35;;;;;;;;;9.00;7.00;;;;;;;;5024244;28;9288;-76
2022/05/11 06:48:03;;;;;;;;;9.00;9.00;;;;;;;;5024661;28;9358;-76
2022/05/11 06:50:30;;;;;;;;;10.33;9.33;;;;;;;;5025171;28;9296;-76
2022/05/11 06:52:58;;;;;;;;;8.67;8.67;;;;;;;;5005560;28;9118;-75
2022/05/11 07:00:56;;;;;;;;;5.00;5.00;;;;;;;;5015099;28;8948;-74
2022/05/11 07:03:23;;;;;;;;;9.00;9.00;;;;;;;;5024506;28;8894;-75
2022/05/11 07:05:51;;;;;;;;;5.75;5.75;;;;;;;;5022344;28;8970;-73
2022/05/11 07:08:18;;;;;;;;;4.00;4.00;;;;;;;;5023300;28;8883;-74
2022/05/11 07:12:17;;;;;;;;;4.00;2.50;;;;;;;;5017190;28;8889;-73
2022/05/11 07:13:33;;;;;;;;;3.25;3.25;;;;;;;;5003728;28;8909;-73
2022/05/11 07:16:02;;;;;;;;;3.50;3.50;;;;;;;;5019950;28;9615;-73
2022/05/11 07:18:29;;;;;;;;;3.00;3.00;;;;;;;;5022039;28;8954;-71
2022/05/11 07:20:56;;;;;;;;;5.25;4.00;;;;;;;;5022175;28;8979;-76
2022/05/11 07:23:25;;;;;;;;;4.00;4.00;;;;;;;;5021685;28;8880;-72
2022/05/11 07:25:52;;;;;;;;;6.00;5.00;;;;;;;;5018492;28;8884;-73
2022/05/11 07:28:20;;;;;;;;;3.25;3.25;;;;;;;;5018416;28;8861;-73
2022/05/11 07:30:47;;;;;;;;;3.00;3.00;;;;;;;;5021562;28;8900;-73
2022/05/11 07:33:16;;;;;;;;;5.50;3.00;;;;;;;;5024075;28;8857;-74
2022/05/11 07:35:44;;;;;;;;;3.00;3.00;;;;;;;;5018482;28;8847;-74
2022/05/11 07:38:14;;;;;;;;;7.00;3.25;;;;;;;;5017879;28;8855;-77
2022/05/11 07:40:43;;;;;;;;;3.00;3.00;;;;;;;;5020954;28;8864;-78
2022/05/11 07:43:11;;;;;;;;;2.25;1.00;;;;;;;;5021404;28;8979;-75
2022/05/11 07:45:40;;;;;;;;;1.00;1.00;;;;;;;;5013292;28;8880;-80
2022/05/11 07:48:08;;;;;;;;;2.00;2.00;;;;;;;;5024129;28;8861;-75
2022/05/11 07:50:37;;;;;;;;;2.00;2.00;;;;;;;;5022273;28;8955;-80
2022/05/11 07:53:05;;;;;;;;;1.00;1.00;;;;;;;;5023494;28;8876;-82
2022/05/11 07:55:33;;;;;;;;;2.00;2.00;;;;;;;;5016309;28;8905;-81
2022/05/11 08:00:46;;;;;;;;;2.25;2.25;;;;;;;;5015512;28;8882;-76
2022/05/11 08:03:13;;;;;;;;;2.00;2.00;;;;;;;;5022782;28;8876;-76
2022/05/11 08:05:43;;;;;;;;;4.00;2.25;;;;;;;;5021172;28;8886;-76
2022/05/11 08:08:10;;;;;;;;;2.00;2.00;;;;;;;;5021349;28;8857;-75
2022/05/11 08:10:42;;;;;;;;;2.00;2.00;;;;;;;;5021313;28;8981;-78
2022/05/11 08:13:10;;;;;;;;;4.00;3.00;;;;;;;;5021412;28;8871;-77
2022/05/11 08:15:39;;;;;;;;;1.25;1.25;;;;;;;;5013064;28;8881;-77
2022/05/11 08:18:07;;;;;;;;;2.50;2.50;;;;;;;;5015156;28;8861;-77
2022/05/11 08:20:36;;;;;;;;;3.75;1.75;;;;;;;;5015790;28;8874;-78
2022/05/11 08:23:07;;;;;;;;;1.00;1.00;;;;;;;;5018760;28;8833;-79
2022/05/11 08:25:36;;;;;;;;;4.00;2.25;;;;;;;;5020709;28;8868;-83
2022/05/11 08:28:09;;;;;;;;;2.50;2.00;;;;;;;;5017420;28;8909;-81
2022/05/11 08:33:22;;;;;;;;;1.00;1.00;;;;;;;;5012737;28;9458;-82
2022/05/11 08:35:51;;;;;;;;;2.00;2.00;;;;;;;;5014042;28;9000;-80
2022/05/11 08:38:21;;;;;;;;;3.50;3.50;;;;;;;;5019523;28;8953;-82
2022/05/11 08:40:52;;;;;;;;;2.00;2.00;;;;;;;;5015451;28;8869;-79
2022/05/11 08:43:20;;;;;;;;;3.00;3.00;;;;;;;;5016626;28;8844;-79
2022/05/11 08:45:54;;;;;;;;;4.00;3.00;;;;;;;;5013325;28;8891;-80
2022/05/11 08:48:29;;;;;;;;;2.00;2.00;;;;;;;;5018947;28;9077;-82
2022/05/11 08:50:56;;;;;;;;;3.80;2.00;;;;;;;;5013248;28;8872;-79
2022/05/11 08:53:35;;;;;;;;;3.00;3.00;;;;;;;;5005275;28;8873;-82
2022/05/11 08:56:08;;;;;;;;;4.80;4.80;;;;;;;;5017812;28;8964;-81
2022/05/11 08:58:39;;;;;;;;;3.20;2.00;;;;;;;;5017794;28;8880;-80
2022/05/11 09:01:13;;;;;;;;;4.00;4.00;;;;;;;;5021787;28;8801;-78
2022/05/11 09:03:42;;;;;;;;;2.60;1.00;;;;;;;;5022319;28;8897;-81
2022/05/11 09:06:23;;;;;;;;;3.80;3.80;;;;;;;;5023411;28;8881;-80
2022/05/11 09:08:53;;;;;;;;;4.80;4.80;;;;;;;;5022499;28;8897;-82
2022/05/11 09:11:26;;;;;;;;;3.40;3.40;;;;;;;;5022526;28;8908;-82
2022/05/11 09:13:53;;;;;;;;;4.40;4.40;;;;;;;;5005457;28;8880;-80
2022/05/11 09:16:23;;;;;;;;;5.60;4.00;;;;;;;;4992058;28;8910;-80
2022/05/11 09:18:50;;;;;;;;;5.00;5.00;;;;;;;;5004405;28;10245;-79
2022/05/11 09:21:31;;;;;;;;;3.00;3.00;;;;;;;;5004206;28;8984;-82
2022/05/11 09:24:28;;;;;;;;;2.00;2.00;;;;;;;;4995851;28;8876;-80
2022/05/11 09:27:08;;;;;;;;;4.00;4.00;;;;;;;;5012458;28;8991;-83
2022/05/11 09:29:39;;;;;;;;;3.80;3.80;;;;;;;;5018361;28;9692;-82
2022/05/11 09:32:25;;;;;;;;;2.60;2.60;;;;;;;;5019642;28;8813;-82
2022/05/11 09:34:52;;;;;;;;;3.80;2.80;;;;;;;;5004384;28;8914;-81
2022/05/11 09:37:29;;;;;;;;;2.00;2.00;;;;;;;;5010022;28;8886;-77
2022/05/11 09:40:10;;;;;;;;;1.80;1.80;;;;;;;;5013934;28;8862;-83
2022/05/11 09:42:37;;;;;;;;;2.60;2.60;;;;;;;;5020338;28;8914;-79
2022/05/11 09:45:06;;;;;;;;;2.00;2.00;;;;;;;;5025128;28;8884;-80
2022/05/11 09:47:35;;;;;;;;;3.60;3.60;;;;;;;;5012062;28;8950;-82
2022/05/11 09:50:20;;;;;;;;;4.40;2.60;;;;;;;;5025673;28;8876;-82
2022/05/11 09:52:47;;;;;;;;;3.40;3.40;;;;;;;;5003935;28;9014;-82
2022/05/11 09:55:19;;;;;;;;;2.60;2.60;;;;;;;;5022637;28;8914;-79
2022/05/11 09:57:56;;;;;;;;;2.60;2.60;;;;;;;;5026684;28;8886;-76
2022/05/11 10:00:26;;;;;;;;;2.80;2.80;;;;;;;;5014432;28;8806;-83
2022/05/11 10:02:57;;;;;;;;;4.20;4.20;;;;;;;;5025049;28;8884;-80
2022/05/11 10:05:28;;;;;;;;;4.60;2.60;;;;;;;;5025004;28;8975;-80
2022/05/11 10:08:00;;;;;;;;;1.60;1.60;;;;;;;;5032006;28;8872;-80
2022/05/11 10:10:33;;;;;;;;;2.60;2.60;;;;;;;;5026305;28;8876;-81
2022/05/11 10:13:11;;;;;;;;;2.80;2.80;;;;;;;;5008325;28;9637;-78
2022/05/11 10:24:11;;;;;;;;;1.80;1.40;;;;;;;;5026684;28;8882;-81
2022/05/11 10:26:46;;;;;;;;;2.80;2.80;;;;;;;;5029778;28;8912;-81
2022/05/11 10:29:19;;;;;;;;;2.00;2.00;;;;;;;;5024408;28;8870;-81
2022/05/11 10:31:54;;;;;;;;;2.40;2.40;;;;;;;;5018213;28;8923;-83
2022/05/11 10:34:26;;;;;;;;;2.80;2.80;;;;;;;;5024286;28;8864;-81
2022/05/11 10:36:59;;;;;;;;;3.20;3.20;;;;;;;;4999406;28;8871;-80
2022/05/11 10:39:39;;;;;;;;;3.60;3.60;;;;;;;;5017460;28;8880;-80
2022/05/11 10:42:14;;;;;;;;;4.40;4.20;;;;;;;;5023632;28;9704;-83
2022/05/11 10:44:59;;;;;;;;;3.00;3.00;;;;;;;;5023683;28;8856;-84
2022/05/11 10:47:38;;;;;;;;;2.00;2.00;;;;;;;;5028463;28;8887;-83
2022/05/11 10:50:15;;;;;;;;;2.80;2.80;;;;;;;;5022583;28;8880;-79
2022/05/11 10:53:05;;;;;;;;;2.40;2.40;;;;;;;;5022456;28;8958;-78
2022/05/11 10:55:44;;;;;;;;;2.40;2.40;;;;;;;;5024351;28;9610;-81
2022/05/11 10:58:44;;;;;;;;;0.40;0.40;;;;;;;;5017383;28;9746;-81
2022/05/11 11:01:14;;;;;;;;;1.80;1.80;;;;;;;;5014261;28;9629;-81
2022/05/11 11:04:05;;;;;;;;;1.80;1.80;;;;;;;;5022154;28;9654;-82
2022/05/11 11:07:14;;;;;;;;;1.80;1.80;;;;;;;;5019554;28;8857;-81
2022/05/11 11:09:53;;;;;;;;;2.20;2.20;;;;;;;;5020633;28;8903;-77
2022/05/11 11:12:40;;;;;;;;;1.00;1.00;;;;;;;;5022748;28;8974;-79
2022/05/11 11:15:12;;;;;;;;;2.00;2.00;;;;;;;;5020680;28;8918;-78
2022/05/11 11:17:43;;;;;;;;;3.80;2.20;;;;;;;;5021081;28;8840;-80
2022/05/11 11:20:13;;;;;;;;;1.80;1.80;;;;;;;;5024652;28;8887;-78
2022/05/11 11:23:03;;;;;;;;;3.00;3.00;;;;;;;;5018813;28;8877;-78
2022/05/11 11:25:45;;;;;;;;;3.00;3.00;;;;;;;;5012633;28;8872;-80
2022/05/11 11:28:15;;;;;;;;;2.20;2.20;;;;;;;;5021663;28;8975;-79
2022/05/11 11:30:44;;;;;;;;;1.80;1.80;;;;;;;;5021594;28;8935;-78
2022/05/11 11:33:24;;;;;;;;;1.80;1.80;;;;;;;;5022035;28;8868;-77
2022/05/11 11:35:57;;;;;;;;;1.20;1.20;;;;;;;;5018664;28;8884;-82
2022/05/11 11:38:30;;;;;;;;;1.20;1.20;;;;;;;;5018488;28;8880;-83
2022/05/11 11:41:15;;;;;;;;;0.80;0.80;;;;;;;;5022458;28;8972;-83
2022/05/11 11:43:55;;;;;;;;;0.40;0.40;;;;;;;;5007092;28;9863;-77
2022/05/11 11:46:34;;;;;;;;;1.00;1.00;;;;;;;;5019150;28;8873;-82
2022/05/11 11:49:06;;;;;;;;;1.20;1.20;;;;;;;;5016925;28;8975;-83
2022/05/11 11:51:50;;;;;;;;;1.00;1.00;;;;;;;;5022771;28;9015;-80
2022/05/11 11:54:32;;;;;;;;;0.60;0.60;;;;;;;;5017690;28;8904;-80
2022/05/11 11:57:00;;;;;;;;;1.00;1.00;;;;;;;;5017155;28;8892;-82
2022/05/11 11:59:41;;;;;;;;;0.40;0.40;;;;;;;;5018122;28;8890;-80
2022/05/11 12:02:29;;;;;;;;;0.80;0.80;;;;;;;;5015231;28;8934;-81
2022/05/11 12:05:09;;;;;;;;;1.80;1.80;;;;;;;;5015556;28;8949;-80
2022/05/11 12:16:08;;;;;;;;;2.00;1.80;;;;;;;;5008605;28;8863;-83
2022/05/11 12:18:38;;;;;;;;;2.00;2.00;;;;;;;;5015539;28;8923;-83
2022/05/11 12:21:11;;;;;;;;;2.00;2.00;;;;;;;;5017855;28;8895;-81
2022/05/11 12:23:40;;;;;;;;;3.20;2.00;;;;;;;;5013594;28;8896;-82
2022/05/11 12:26:10;;;;;;;;;1.60;1.60;;;;;;;;5018341;28;8954;-79
2022/05/11 12:28:40;;;;;;;;;3.60;2.00;;;;;;;;4998921;28;8878;-78
2022/05/11 12:31:09;;;;;;;;;0.00;0.00;;;;;;;;5019541;28;9618;-83
2022/05/11 12:33:39;;;;;;;;;0.80;0.80;;;;;;;;5008477;28;8861;-82
2022/05/11 12:36:09;;;;;;;;;1.20;1.20;;;;;;;;5018830;28;8993;-82
2022/05/11 12:38:38;;;;;;;;;0.00;0.00;;;;;;;;5013273;28;8889;-84
2022/05/11 12:41:14;;;;;;;;;0.00;0.00;;;;;;;;5020319;28;8906;-79
2022/05/11 12:43:51;;;;;;;;;1.00;1.00;;;;;;;;5019946;28;9036;-84
2022/05/11 12:46:18;;;;;;;;;0.00;0.00;;;;;;;;5015146;28;8961;-77
2022/05/11 12:48:53;;;;;;;;;0.40;0.40;;;;;;;;5016386;28;8881;-81
2022/05/11 12:51:30;;;;;;;;;0.40;0.40;;;;;;;;5017285;28;8880;-82
2022/05/11 12:54:00;;;;;;;;;1.00;1.00;;;;;;;;5017140;28;8872;-82
2022/05/11 12:56:30;;;;;;;;;0.00;0.00;;;;;;;;5016958;28;8950;-81
2022/05/11 12:59:00;;;;;;;;;0.00;0.00;;;;;;;;5015686;28;8873;-81
2022/05/11 13:01:29;;;;;;;;;0.00;0.00;;;;;;;;5019766;28;8846;-80
2022/05/11 13:03:59;;;;;;;;;0.00;0.00;;;;;;;;5018392;28;8853;-77
2022/05/11 13:06:32;;;;;;;;;0.20;0.20;;;;;;;;5013783;28;9733;-78
2022/05/11 13:09:04;;;;;;;;;1.00;1.00;;;;;;;;5018669;28;8866;-84
2022/05/11 13:11:33;;;;;;;;;0.20;0.20;;;;;;;;5021477;28;9683;-82
2022/05/11 13:14:01;;;;;;;;;0.00;0.00;;;;;;;;5019500;28;8944;-81
2022/05/11 13:16:32;;;;;;;;;0.00;0.00;;;;;;;;5019022;28;8894;-81
2022/05/11 13:19:08;;;;;;;;;0.00;0.00;;;;;;;;5017591;28;9993;-81
2022/05/11 13:21:38;;;;;;;;;2.60;1.00;;;;;;;;5018397;28;8895;-80
2022/05/11 13:24:07;;;;;;;;;0.60;0.60;;;;;;;;5017654;28;8854;-85
2022/05/11 13:26:40;;;;;;;;;0.00;0.00;;;;;;;;5019390;28;8851;-83
2022/05/11 13:29:19;;;;;;;;;1.00;1.00;;;;;;;;5019495;28;9693;-81
2022/05/11 13:31:47;;;;;;;;;1.00;1.00;;;;;;;;5016030;28;8825;-79
2022/05/11 13:34:37;;;;;;;;;0.20;0.20;;;;;;;;5016923;28;8884;-79
2022/05/11 13:37:08;;;;;;;;;0.40;0.00;;;;;;;;5013060;28;8873;-86
2022/05/11 13:39:36;;;;;;;;;1.00;1.00;;;;;;;;5015510;28;8884;-79
2022/05/11 13:42:12;;;;;;;;;0.40;0.40;;;;;;;;5016235;28;8987;-82
2022/05/11 13:44:42;;;;;;;;;0.40;0.00;;;;;;;;5021123;28;8864;-82
2022/05/11 14:19:31;;;;;;;;;0.00;0.00;;;;;;;;5728543;22;8579;-80
2022/05/11 14:21:58;;;;;;;;;0.80;0.80;;;;;;;;4986972;28;8888;-80
2022/05/11 14:24:26;;;;;;;;;0.80;0.80;;;;;;;;4991961;28;8902;-80
2022/05/11 14:26:53;;;;;;;;;2.60;0.00;;;;;;;;4996122;28;8902;-80
2022/05/11 14:29:21;;;;;;;;;0.60;0.60;;;;;;;;4997739;28;8882;-78
2022/05/11 14:31:49;;;;;;;;;0.00;0.00;;;;;;;;4995146;28;8873;-81
2022/05/11 14:34:18;;;;;;;;;0.60;0.60;;;;;;;;4993365;28;8886;-81
2022/05/11 14:36:47;;;;;;;;;0.00;0.00;;;;;;;;5002945;28;8895;-81
2022/05/11 14:39:15;;;;;;;;;0.00;0.00;;;;;;;;4993258;28;9725;-79
2022/05/11 14:41:42;;;;;;;;;0.00;0.00;;;;;;;;4998170;28;8876;-79
2022/05/11 14:44:11;;;;;;;;;0.00;0.00;;;;;;;;5002711;28;9442;-80
2022/05/11 14:46:39;;;;;;;;;0.00;0.00;;;;;;;;5010389;28;9627;-79
2022/05/11 14:49:07;;;;;;;;;2.00;0.00;;;;;;;;5004593;28;8907;-80
2022/05/11 14:51:38;;;;;;;;;0.00;0.00;;;;;;;;5006487;28;8911;-80
2022/05/11 14:54:07;;;;;;;;;0.00;0.00;;;;;;;;5014811;28;8992;-77
2022/05/11 14:56:34;;;;;;;;;0.00;0.00;;;;;;;;5021285;28;8877;-76
2022/05/11 15:04:32;;;;;;;;;1.00;1.00;;;;;;;;5012735;28;8952;-82
2022/05/11 15:07:00;;;;;;;;;0.00;0.00;;;;;;;;5013433;28;8910;-79
2022/05/11 15:09:29;;;;;;;;;0.00;0.00;;;;;;;;5020062;28;8908;-79
2022/05/11 15:14:43;;;;;;;;;1.00;0.00;;;;;;;;5021075;28;8841;-81
2022/05/11 15:17:14;;;;;;;;;0.00;0.00;;;;;;;;5021061;28;8996;-81
2022/05/11 15:19:41;;;;;;;;;0.40;0.00;;;;;;;;5020204;28;8888;-81
2022/05/11 15:22:09;;;;;;;;;0.40;0.40;;;;;;;;5021542;28;10863;-80
2022/05/11 15:24:38;;;;;;;;;0.00;0.00;;;;;;;;5021051;28;8925;-80
2022/05/11 15:27:06;;;;;;;;;0.00;0.00;;;;;;;;5020736;28;8907;-81
2022/05/11 15:29:33;;;;;;;;;1.00;1.00;;;;;;;;5019913;28;8976;-79
2022/05/11 15:32:02;;;;;;;;;0.00;0.00;;;;;;;;5017239;28;8837;-82
2022/05/11 15:34:31;;;;;;;;;0.00;0.00;;;;;;;;5018917;28;8873;-78
2022/05/11 15:36:59;;;;;;;;;0.00;0.00;;;;;;;;5020800;28;8875;-78
2022/05/11 15:39:27;;;;;;;;;1.00;1.00;;;;;;;;5022053;28;8873;-81
2022/05/11 15:41:57;;;;;;;;;0.20;0.20;;;;;;;;5018746;28;8900;-80
2022/05/11 15:44:26;;;;;;;;;0.60;0.60;;;;;;;;5022916;28;8881;-80
2022/05/11 15:46:54;;;;;;;;;0.40;0.40;;;;;;;;5017798;28;8852;-79
2022/05/11 15:49:23;;;;;;;;;2.60;1.00;;;;;;;;5018590;28;8903;-81
2022/05/11 15:51:50;;;;;;;;;0.60;0.60;;;;;;;;5022902;28;8869;-81
2022/05/11 15:54:21;;;;;;;;;0.60;0.20;;;;;;;;5020741;28;8877;-81
2022/05/11 15:56:49;;;;;;;;;0.40;0.40;;;;;;;;5022207;28;8865;-81
2022/05/11 15:59:19;;;;;;;;;1.00;1.00;;;;;;;;5017983;28;8869;-80
2022/05/11 16:01:47;;;;;;;;;0.20;0.20;;;;;;;;5020963;28;8830;-81
2022/05/11 16:04:14;;;;;;;;;1.00;1.00;;;;;;;;5018159;28;8901;-80
2022/05/11 16:06:42;;;;;;;;;0.00;0.00;;;;;;;;5021476;28;8876;-83
2022/05/11 16:09:12;;;;;;;;;0.60;0.60;;;;;;;;5023261;28;8858;-83
2022/05/11 16:11:40;;;;;;;;;1.00;1.00;;;;;;;;5020971;28;8885;-85
2022/05/11 16:14:11;;;;;;;;;0.00;0.00;;;;;;;;5023217;28;9658;-83
2022/05/11 16:16:40;;;;;;;;;0.00;0.00;;;;;;;;5020900;28;9634;-85
2022/05/11 16:21:53;;;;;;;;;0.60;0.60;;;;;;;;5020782;28;8855;-86
2022/05/11 16:24:21;;;;;;;;;0.80;0.80;;;;;;;;5017927;28;8935;-82
2022/05/11 16:26:49;;;;;;;;;2.00;0.60;;;;;;;;5014460;28;8877;-84
2022/05/11 16:29:17;;;;;;;;;0.00;0.00;;;;;;;;5018507;28;8907;-85